Time;durP1;ratioP1;P1;durP2;ratioP2;P2;SDS_P1;SDS_P2;PMS_P1;PMS_P2;Temp;Humidity;BMP_temperature;BMP_pressure;BME280_temperature;BME280_humidity;BME280_pressure;Samples;Min_cycle;Max_cycle;Signal;HPM_P1;HPM_P2
2023/07/06 14:55:59;;;;;;;5.92;4.05;;;;;;;23.68;56.83;100471.70;1799950;77;28271;-52
2023/07/06 14:59:06;;;;;;;7.83;5.03;;;;;;;23.55;56.94;100480.47;1798204;79;21329;-54
2023/07/06 15:02:13;;;;;;;7.03;5.33;;;;;;;23.47;57.22;100487.35;1786144;80;21636;-53
2023/07/06 15:05:20;;;;;;;11.08;7.03;;;;;;;23.42;57.44;100519.98;1778027;79;21358;-52
2023/07/06 15:08:25;;;;;;;7.33;5.85;;;;;;;23.39;57.85;100508.75;1786336;78;21387;-52
2023/07/06 15:11:32;;;;;;;11.33;7.30;;;;;;;23.49;58.26;100480.11;1786810;80;21381;-53
2023/07/06 15:14:39;;;;;;;8.73;7.08;;;;;;;23.59;58.66;100450.91;1787070;78;21379;-53
2023/07/06 15:17:46;;;;;;;9.13;6.15;;;;;;;23.75;59.05;100437.43;1786385;80;21372;-52
2023/07/06 15:20:53;;;;;;;8.73;6.65;;;;;;;23.95;59.40;100423.69;1790810;80;21351;-53
2023/07/06 15:24:00;;;;;;;8.50;7.60;;;;;;;24.09;59.54;100419.94;1790315;80;21401;-53
2023/07/06 15:27:07;;;;;;;8.28;7.20;;;;;;;24.13;59.62;100414.98;1763482;79;21339;-53
2023/07/06 15:30:15;;;;;;;8.83;7.25;;;;;;;24.13;59.65;100419.17;1790992;80;21371;-54
2023/07/06 15:33:20;;;;;;;9.33;7.72;;;;;;;24.13;59.85;100422.52;1793254;80;21346;-53
2023/07/06 15:36:29;;;;;;;11.20;8.33;;;;;;;24.12;60.06;100427.26;1793881;80;21383;-53
2023/07/06 15:39:36;;;;;;;10.65;8.48;;;;;;;24.13;60.23;100415.52;1793830;80;21350;-54
2023/07/06 15:42:42;;;;;;;13.65;9.03;;;;;;;24.14;60.44;100422.25;1792876;80;21883;-53
2023/07/06 15:45:48;;;;;;;9.45;8.08;;;;;;;24.18;60.64;100433.19;1792721;80;21346;-53
2023/07/06 15:48:56;;;;;;;11.63;8.93;;;;;;;24.26;60.88;100429.10;1792921;80;21440;-52
2023/07/06 15:52:03;;;;;;;11.10;8.58;;;;;;;24.32;61.17;100428.03;1791916;80;21351;-54
2023/07/06 15:55:09;;;;;;;12.82;8.25;;;;;;;24.38;61.31;100422.23;1793177;78;21737;-53
2023/07/06 15:58:14;;;;;;;12.40;8.25;;;;;;;24.44;61.40;100428.16;1793248;79;21274;-55
2023/07/06 16:01:20;;;;;;;9.10;8.03;;;;;;;24.48;61.53;100425.11;1750350;80;21298;-53
2023/07/06 16:04:26;;;;;;;14.18;8.40;;;;;;;24.51;61.60;100428.80;1772338;80;21208;-55
2023/07/06 16:07:33;;;;;;;9.53;8.18;;;;;;;24.50;61.61;100443.89;1791239;80;21201;-54
2023/07/06 16:10:42;;;;;;;10.10;8.35;;;;;;;24.47;61.67;100436.02;1791484;80;21173;-54
2023/07/06 16:13:49;;;;;;;11.63;8.75;;;;;;;24.45;61.77;100433.21;1775520;80;21391;-54
2023/07/06 16:16:57;;;;;;;11.83;8.98;;;;;;;24.40;61.86;100434.02;1791387;80;21676;-55
2023/07/06 16:20:04;;;;;;;11.88;8.40;;;;;;;24.35;61.92;100433.95;1792241;80;21200;-54
2023/07/06 16:23:10;;;;;;;11.97;7.55;;;;;;;24.28;62.02;100433.85;1787552;78;21336;-54
2023/07/06 16:26:19;;;;;;;13.78;9.03;;;;;;;24.22;62.17;100423.18;1792921;80;21241;-54
2023/07/06 16:29:24;;;;;;;10.60;9.15;;;;;;;24.19;62.41;100425.11;1797297;79;21926;-54
2023/07/06 16:32:30;;;;;;;14.38;9.15;;;;;;;24.18;62.61;100429.57;1799571;78;21327;-54
2023/07/06 16:35:37;;;;;;;10.13;8.18;;;;;;;24.19;62.88;100418.66;1793667;80;21236;-55
2023/07/06 16:38:44;;;;;;;13.95;8.98;;;;;;;24.17;62.97;100417.53;1793178;80;21837;-55
2023/07/06 16:41:51;;;;;;;19.27;8.80;;;;;;;24.12;62.96;100412.45;1793336;80;21330;-55
2023/07/06 16:44:55;;;;;;;14.53;8.13;;;;;;;24.05;63.06;100407.05;1793416;80;21394;-55
2023/07/06 16:48:02;;;;;;;12.37;8.75;;;;;;;24.02;63.19;100406.73;1793159;80;21334;-55
2023/07/06 16:51:09;;;;;;;12.47;9.38;;;;;;;23.99;63.38;100394.67;1793113;80;21161;-55
2023/07/06 16:54:15;;;;;;;15.13;9.28;;;;;;;23.99;63.59;100392.70;1793384;80;21347;-55
2023/07/06 16:57:23;;;;;;;14.35;9.80;;;;;;;24.03;63.82;100394.42;1794546;77;21296;-55
2023/07/06 17:00:29;;;;;;;13.75;8.48;;;;;;;24.03;63.95;100398.62;1786419;80;21331;-55
2023/07/06 17:03:36;;;;;;;13.25;9.00;;;;;;;24.04;64.17;100398.35;1758483;81;21176;-55
2023/07/06 17:06:41;;;;;;;13.43;8.80;;;;;;;24.01;64.16;100404.48;1757819;80;21263;-53
2023/07/06 17:09:48;;;;;;;12.65;8.88;;;;;;;23.96;64.21;100404.38;1758065;80;21196;-55
2023/07/06 17:12:56;;;;;;;14.60;8.58;;;;;;;23.93;64.32;100395.70;1759528;80;21228;-54
2023/07/06 17:16:05;;;;;;;12.37;9.45;;;;;;;23.88;64.47;100397.86;1768703;80;21318;-54
2023/07/06 17:19:12;;;;;;;21.52;9.35;;;;;;;23.87;64.70;100400.92;1785812;79;21637;-54
2023/07/06 17:22:19;;;;;;;19.07;9.43;;;;;;;23.83;64.78;100406.75;1792398;80;21239;-55
2023/07/06 17:25:26;;;;;;;14.78;10.05;;;;;;;23.81;64.94;100404.22;1793046;79;21273;-54
2023/07/06 17:28:32;;;;;;;25.70;14.45;;;;;;;23.79;65.20;100402.23;1770743;80;21366;-55
2023/07/06 17:31:39;;;;;;;17.25;10.43;;;;;;;23.77;65.34;100407.23;1793437;78;21188;-55
2023/07/06 17:34:46;;;;;;;14.30;9.83;;;;;;;23.77;65.42;100410.03;1793383;80;21303;-55
2023/07/06 17:37:51;;;;;;;17.50;10.75;;;;;;;23.74;65.52;100410.55;1787473;80;21406;-55
2023/07/06 17:41:10;;;;;;;19.40;11.08;;;;;;;23.70;65.66;100403.81;1783309;80;21189;-55
2023/07/06 17:44:17;;;;;;;17.95;10.38;;;;;;;23.69;65.84;100406.87;1792288;80;21212;-55
2023/07/06 17:47:24;;;;;;;18.98;10.18;;;;;;;23.69;66.03;100404.08;1765863;80;21206;-56
2023/07/06 17:50:31;;;;;;;20.77;12.45;;;;;;;23.66;66.09;100401.80;1842501;77;21383;-55
2023/07/06 17:53:37;;;;;;;15.90;10.88;;;;;;;23.62;66.12;100401.47;1828167;77;21329;-56
2023/07/06 17:56:43;;;;;;;15.43;10.85;;;;;;;23.58;66.25;100408.67;1829161;78;21345;-56
2023/07/06 17:59:50;;;;;;;17.75;11.63;;;;;;;23.55;66.45;100396.07;1828357;77;21349;-55
2023/07/06 18:03:05;;;;;;;15.35;11.48;;;;;;;23.52;66.57;100395.20;1851488;75;21306;-56
2023/07/06 18:06:11;;;;;;;15.60;11.03;;;;;;;23.50;66.74;100390.41;1861783;77;21722;-56
2023/07/06 18:09:16;;;;;;;19.55;12.20;;;;;;;23.48;66.90;100389.00;1861787;77;21811;-56
2023/07/06 18:12:23;;;;;;;16.15;12.43;;;;;;;23.47;67.06;100396.52;1860439;77;21340;-56
2023/07/06 18:15:30;;;;;;;16.25;12.03;;;;;;;23.45;67.23;100395.93;1850918;77;21321;-56
2023/07/06 18:18:37;;;;;;;17.12;12.50;;;;;;;23.45;67.38;100392.31;1833255;77;21949;-55
2023/07/06 18:21:45;;;;;;;20.08;13.13;;;;;;;23.45;67.58;100386.72;1836267;77;21387;-55
2023/07/06 18:24:51;;;;;;;17.57;13.08;;;;;;;23.44;67.79;100387.80;1828913;77;21423;-55
2023/07/06 18:27:57;;;;;;;16.50;13.48;;;;;;;23.42;67.91;100387.25;1828808;77;21317;-55
2023/07/06 18:31:03;;;;;;;17.48;13.22;;;;;;;23.41;68.04;100393.37;1828422;78;21323;-55
2023/07/06 18:34:12;;;;;;;19.90;14.63;;;;;;;23.40;68.23;100401.45;1828748;78;21335;-54
2023/07/06 18:37:20;;;;;;;21.15;14.55;;;;;;;23.40;68.39;100398.66;1828611;78;21321;-55
2023/07/06 18:40:27;;;;;;;22.45;15.05;;;;;;;23.40;68.60;100397.25;1836025;75;21365;-55
2023/07/06 18:43:35;;;;;;;19.82;14.33;;;;;;;23.40;68.80;100394.45;1858567;77;21317;-54
2023/07/06 18:46:43;;;;;;;16.70;14.90;;;;;;;23.41;68.94;100403.16;1843942;77;21440;-55
2023/07/06 18:49:49;;;;;;;24.80;14.85;;;;;;;23.40;69.05;100403.41;1859551;76;21706;-55
2023/07/06 18:52:57;;;;;;;19.67;14.00;;;;;;;23.39;69.15;100400.31;1859200;77;21254;-55
2023/07/06 18:56:03;;;;;;;20.00;15.35;;;;;;;23.37;69.25;100407.55;1858448;75;21329;-55
2023/07/06 18:59:08;;;;;;;17.50;14.15;;;;;;;23.35;69.31;100403.34;1860605;77;21388;-55
2023/07/06 19:02:14;;;;;;;19.65;15.13;;;;;;;23.31;69.40;100400.75;1861744;77;21361;-56
2023/07/06 19:05:21;;;;;;;20.85;15.75;;;;;;;23.27;69.49;100401.84;1859673;77;21358;-55
2023/07/06 19:08:27;;;;;;;18.70;15.25;;;;;;;23.22;69.59;100394.75;1862109;75;21433;-56
2023/07/06 19:11:33;;;;;;;22.30;15.23;;;;;;;23.19;69.74;100393.02;1862182;77;21326;-56
2023/07/06 19:14:39;;;;;;;18.73;15.40;;;;;;;23.16;69.88;100393.54;1862573;76;21345;-56
2023/07/06 19:17:45;;;;;;;18.92;15.55;;;;;;;23.14;70.01;100399.92;1855016;77;21380;-55
2023/07/06 19:20:53;;;;;;;23.15;14.95;;;;;;;23.12;70.16;100389.59;1842705;77;21191;-56
2023/07/06 19:24:00;;;;;;;23.70;16.52;;;;;;;23.10;70.34;100385.63;1842552;76;21217;-55
2023/07/06 19:27:06;;;;;;;24.60;15.70;;;;;;;23.09;70.50;100392.86;1849831;77;21798;-55
2023/07/06 19:30:13;;;;;;;22.98;15.55;;;;;;;23.08;70.68;100381.41;1852707;75;21915;-55
2023/07/06 19:33:19;;;;;;;23.90;16.40;;;;;;;23.07;70.81;100384.74;1846712;75;21325;-55
2023/07/06 19:36:26;;;;;;;20.52;15.72;;;;;;;23.07;70.97;100390.91;1858251;75;21164;-56
2023/07/06 19:39:33;;;;;;;27.70;16.62;;;;;;;23.07;71.11;100380.55;1862676;75;21695;-56
2023/07/06 19:42:39;;;;;;;24.47;16.80;;;;;;;23.08;71.28;100375.83;1855527;77;21680;-56
2023/07/06 19:45:48;;;;;;;21.70;15.20;;;;;;;23.09;71.46;100376.11;1858077;77;21803;-55
2023/07/06 19:48:57;;;;;;;29.67;17.67;;;;;;;23.09;71.61;100383.95;1853453;77;21333;-56
2023/07/06 19:52:02;;;;;;;26.85;17.15;;;;;;;23.11;71.73;100380.89;1846256;77;21369;-55
2023/07/06 19:55:09;;;;;;;36.75;18.73;;;;;;;23.09;71.84;100374.17;1862004;77;21720;-56
2023/07/06 19:58:15;;;;;;;22.48;16.70;;;;;;;23.09;71.96;100374.70;1853225;77;21348;-55
2023/07/06 20:01:21;;;;;;;23.18;17.45;;;;;;;23.10;72.12;100375.02;1833496;75;21333;-55
2023/07/06 20:04:28;;;;;;;24.72;18.70;;;;;;;23.10;72.27;100379.21;1828078;78;21741;-55
2023/07/06 20:07:35;;;;;;;25.15;18.40;;;;;;;23.10;72.43;100382.00;1828300;78;21234;-56
2023/07/06 20:10:41;;;;;;;23.70;18.60;;;;;;;23.11;72.57;100376.70;1780475;79;21408;-54
2023/07/06 20:13:49;;;;;;;29.77;18.70;;;;;;;23.12;72.72;100370.03;1750745;80;21418;-55
2023/07/06 20:16:56;;;;;;;21.70;18.27;;;;;;;23.12;72.82;100373.65;1750817;81;21215;-55
2023/07/06 20:20:02;;;;;;;24.40;18.82;;;;;;;23.10;72.96;100368.86;1775210;79;21396;-55
2023/07/06 20:23:08;;;;;;;22.30;17.48;;;;;;;23.11;73.11;100371.12;1775215;81;21396;-55
2023/07/06 20:26:15;;;;;;;21.35;17.73;;;;;;;23.10;73.21;100375.02;1775330;79;21334;-55
2023/07/06 20:29:21;;;;;;;23.73;18.25;;;;;;;23.08;73.30;100366.05;1775316;79;21886;-56
2023/07/06 20:32:27;;;;;;;22.25;18.62;;;;;;;23.08;73.44;100370.23;1775430;79;21393;-55
2023/07/06 20:35:34;;;;;;;31.55;20.05;;;;;;;23.07;73.58;100367.98;1775615;81;21693;-56
2023/07/06 20:38:42;;;;;;;26.50;18.35;;;;;;;23.06;73.73;100370.50;1775884;79;21397;-55
2023/07/06 20:41:50;;;;;;;25.27;20.12;;;;;;;23.05;73.89;100365.17;1775957;79;21321;-55
2023/07/06 20:44:58;;;;;;;21.55;19.30;;;;;;;23.05;74.01;100373.55;1749887;81;21869;-55
2023/07/06 20:48:04;;;;;;;24.90;18.15;;;;;;;23.04;74.18;100373.27;1775956;81;21333;-56
2023/07/06 20:51:09;;;;;;;24.12;18.27;;;;;;;23.03;74.28;100371.02;1775904;79;21355;-56
2023/07/06 20:54:15;;;;;;;26.87;19.52;;;;;;;23.02;74.44;100367.09;1775668;79;21361;-56
2023/07/06 20:57:23;;;;;;;27.42;20.02;;;;;;;23.03;74.56;100368.77;1775875;81;21345;-56
2023/07/06 21:00:30;;;;;;;34.92;21.75;;;;;;;23.02;74.70;100374.06;1775832;79;21850;-56
2023/07/06 21:03:38;;;;;;;27.20;20.60;;;;;;;23.01;74.83;100374.61;1765945;80;21389;-55
2023/07/06 21:06:45;;;;;;;28.23;19.95;;;;;;;23.02;75.01;100371.27;1765311;81;21330;-55
2023/07/06 21:09:51;;;;;;;26.97;19.85;;;;;;;23.01;75.18;100369.56;1765274;80;21322;-56
2023/07/06 21:12:59;;;;;;;25.95;19.82;;;;;;;22.99;75.22;100360.62;1765282;80;21343;-55
2023/07/06 21:16:08;;;;;;;24.92;20.35;;;;;;;22.99;75.37;100360.62;1765300;81;21373;-56
2023/07/06 21:19:16;;;;;;;25.70;20.37;;;;;;;22.98;75.48;100361.70;1765250;80;21338;-54
2023/07/06 21:22:23;;;;;;;26.93;20.32;;;;;;;22.98;75.63;100364.50;1765373;81;21822;-54
2023/07/06 21:25:30;;;;;;;22.02;19.57;;;;;;;22.98;75.82;100358.37;1765233;80;21434;-54
2023/07/06 21:28:37;;;;;;;26.02;19.90;;;;;;;22.99;76.00;100354.46;1765303;80;21373;-55
2023/07/06 21:31:42;;;;;;;23.98;19.50;;;;;;;22.99;76.17;100360.05;1765268;80;21434;-56
2023/07/06 21:34:50;;;;;;;25.35;19.52;;;;;;;23.00;76.33;100350.59;1765259;80;21882;-57
2023/07/06 21:37:58;;;;;;;26.73;19.95;;;;;;;23.03;76.48;100353.41;1765269;81;21832;-57
2023/07/06 21:41:05;;;;;;;25.37;21.00;;;;;;;23.03;76.62;100350.61;1765299;81;21337;-56
2023/07/06 21:44:12;;;;;;;28.83;19.87;;;;;;;23.05;76.82;100340.89;1765263;80;21362;-56
2023/07/06 21:47:19;;;;;;;26.17;19.45;;;;;;;23.07;76.91;100344.82;1765295;81;21349;-54
2023/07/06 21:50:25;;;;;;;23.55;20.50;;;;;;;23.10;77.08;100344.30;1765211;80;21342;-55
2023/07/06 21:53:32;;;;;;;27.15;20.08;;;;;;;23.12;77.23;100347.69;1765252;80;21744;-55
2023/07/06 21:56:38;;;;;;;27.55;21.42;;;;;;;23.14;77.38;100343.52;1765315;81;21326;-55
2023/07/06 21:59:45;;;;;;;22.87;19.15;;;;;;;23.17;77.56;100344.94;1765321;80;21342;-55
2023/07/06 22:02:55;;;;;;;28.27;20.70;;;;;;;23.21;77.72;100345.55;1775077;78;21329;-55
2023/07/06 22:06:09;;;;;;;23.62;19.07;;;;;;;23.23;77.86;100336.37;1754758;80;21184;-56
2023/07/06 22:09:09;;;;;;;27.98;20.43;;;;;;;23.25;78.04;100346.77;1778602;79;21341;-55
2023/07/06 22:12:02;;;;;;;24.02;20.00;;;;;;;23.29;78.18;100349.91;1778749;80;21853;-55
2023/07/06 22:15:09;;;;;;;25.20;19.37;;;;;;;23.30;78.26;100353.83;1778631;79;21369;-56
2023/07/06 22:18:18;;;;;;;24.52;19.50;;;;;;;23.32;78.37;100353.03;1768105;80;21333;-55
2023/07/06 22:21:24;;;;;;;22.05;18.32;;;;;;;23.32;78.45;100346.05;1768014;80;21334;-56
2023/07/06 22:24:29;;;;;;;24.07;19.10;;;;;;;23.32;78.55;100348.84;1767965;80;21432;-56
2023/07/06 22:27:29;;;;;;;22.10;19.00;;;;;;;23.32;78.64;100347.44;1767970;81;21373;-55
2023/07/06 22:30:37;;;;;;;22.60;17.95;;;;;;;23.35;78.73;100357.23;1767936;80;21783;-56
2023/07/06 22:33:44;;;;;;;21.73;18.57;;;;;;;23.35;78.84;100355.84;1768069;80;21345;-55
2023/07/06 22:36:50;;;;;;;21.23;19.02;;;;;;;23.35;78.96;100351.11;1767986;81;21207;-55
2023/07/06 22:39:55;;;;;;;24.43;18.62;;;;;;;23.37;79.06;100353.06;1767946;80;21389;-55
2023/07/06 22:43:05;;;;;;;23.00;18.87;;;;;;;23.40;79.16;100355.91;1767961;81;21436;-56
2023/07/06 22:46:11;;;;;;;21.80;18.55;;;;;;;23.42;79.25;100345.33;1767967;80;21330;-54
2023/07/06 22:49:24;;;;;;;20.23;18.17;;;;;;;23.44;79.36;100349.54;1768052;80;21400;-55
2023/07/06 22:52:28;;;;;;;21.95;17.95;;;;;;;23.45;79.46;100347.60;1767952;81;21345;-55
2023/07/06 22:55:38;;;;;;;23.10;19.02;;;;;;;23.47;79.55;100350.41;1767902;80;21365;-57
2023/07/06 22:58:44;;;;;;;23.40;18.45;;;;;;;23.48;79.67;100345.67;1767945;80;21393;-55
2023/07/06 23:01:51;;;;;;;25.85;19.82;;;;;;;23.48;79.74;100345.67;1767956;81;21219;-56
2023/07/06 23:04:57;;;;;;;24.98;18.23;;;;;;;23.49;79.84;100343.16;1767930;79;21842;-55
2023/07/06 23:08:05;;;;;;;22.40;17.75;;;;;;;23.49;79.92;100338.97;1768059;81;21207;-55
2023/07/06 23:11:13;;;;;;;22.32;17.77;;;;;;;23.50;80.00;100344.30;1768035;80;21337;-55
2023/07/06 23:14:20;;;;;;;21.45;17.45;;;;;;;23.51;80.11;100342.36;1767982;80;21361;-55
2023/07/06 23:17:27;;;;;;;21.95;18.60;;;;;;;23.50;80.16;100340.11;1768039;81;21314;-56
2023/07/06 23:20:33;;;;;;;19.85;17.73;;;;;;;23.51;80.26;100333.97;1768010;80;21412;-56
2023/07/06 23:23:42;;;;;;;19.00;17.10;;;;;;;23.49;80.33;100328.64;1768090;80;21358;-55
2023/07/06 23:26:50;;;;;;;19.92;16.90;;;;;;;23.50;80.41;100331.72;1768043;80;21357;-55
2023/07/06 23:29:56;;;;;;;19.62;17.48;;;;;;;23.49;80.50;100327.79;1768061;80;21866;-55
2023/07/06 23:32:55;;;;;;;22.90;18.05;;;;;;;23.50;80.57;100328.08;1768015;81;21908;-55
2023/07/06 23:36:02;;;;;;;22.73;17.73;;;;;;;23.50;80.66;100328.08;1768026;81;21450;-55
2023/07/06 23:39:08;;;;;;;22.73;17.62;;;;;;;23.50;80.72;100318.29;1768039;80;21377;-54
2023/07/06 23:42:16;;;;;;;20.57;17.05;;;;;;;23.50;80.78;100321.09;1768056;81;21326;-55
2023/07/06 23:45:21;;;;;;;18.80;17.00;;;;;;;23.48;80.85;100318.55;1771089;79;21369;-55
2023/07/06 23:48:28;;;;;;;21.12;16.90;;;;;;;23.48;80.88;100312.14;1752271;80;21350;-55
2023/07/06 23:51:34;;;;;;;19.30;16.17;;;;;;;23.47;80.93;100313.23;1768002;81;21350;-55
2023/07/06 23:54:41;;;;;;;19.62;15.83;;;;;;;23.46;81.00;100312.95;1768003;80;21382;-54
2023/07/06 23:57:47;;;;;;;17.77;15.58;;;;;;;23.45;81.06;100310.70;1768033;80;21401;-55
